Nearby METAR Reports

 

EGQL - Leuchars Raf, United Kingdom
Distance from station: SW 17km
Updated: 28/09/2021 15:50
Mostly cloudy
Mostly cloudy
 Wind from S
Wind: S 9 mph , 15 km/h
Temperature: 11°C
Dew Point: 9°C
Humidity: 88%
Barometer: 1008 hPa
Clouds: Mostly cloudy
Visibility: 6 miles , 10 km
Cloud details: Partly cloudy 1189 m
Mostly cloudy 1524 m
2021/09/28 13:50 EGQL 281350Z 19008KT 9999 SCT039 BKN050 11/09 Q1008 RMK BLU
EGPN - Dundee/Riverside, United Kingdom
Distance from station: WSW 20km
Updated: 28/09/2021 15:50
Light rain, Few clouds
Light rain, Few clouds
 Wind from S
Wind: S 13 mph , 20 km/h
Temperature: 12°C
Dew Point: 9°C
Humidity: 82%
Barometer: 1008 hPa
Summary: Light rain
Clouds: Few Clouds
Visibility: 6 miles , 10 km
Cloud details: Few Clouds 610 m
2021/09/28 13:50 EGPN 281350Z 17011KT 9999 -RA FEW020 12/09 Q1008
 
EGPH - Edinburgh Airpor, United Kingdom
Distance from station: SSW 74km
Updated: 28/09/2021 15:50
Clear
Clear
 Wind from S
Wind: S 8 mph , 13 km/h
Temperature: 12°C
Dew Point: 8°C
Humidity: 77%
Barometer: 1007 hPa
Summary: Clear
Visibility: greater than 7 miles , 10 km
2021/09/28 13:50 EGPH 281350Z 18007KT CAVOK 12/08 Q1007
EGPD - Aberdeen/Dyce, United Kingdom
Distance from station: NNE 82km
Updated: 28/09/2021 15:50
Mostly cloudy
Mostly cloudy
 Wind from S
Wind: S 20 mph , 31 km/h
Temperature: 13°C
Dew Point: 9°C
Humidity: 77%
Barometer: 1008 hPa
Clouds: Mostly cloudy
Visibility: 6 miles , 10 km
Cloud details: Partly cloudy 671 m
Mostly cloudy 884 m
Mostly cloudy 1311 m
2021/09/28 13:50 EGPD 281350Z AUTO 17017KT 9999 SCT022 BKN029 BKN043 13/09 Q1008